Terminal Aerodrome Forecast
Issued by NWS

Home | Current Version | Previous Version | Graphics & Text | Print | Product List | Glossary On
Versions: 1 2 3 4 5 6 7 8 9 10 11 12 13 14 15 16
000
FTUS43 KGRB 240520
TAFCWA
TAF
KCWA 240520Z 2406/2506 VRB03KT P6SM SCT150
     FM241400 35005KT P6SM BKN120
     FM242000 35008KT P6SM BKN050
     FM250100 36005KT P6SM SCT050
      AMD LTD TO CLD VIS AND WIND TIL 241100=

USA.gov is the U.S. government's official web portal to all federal, state and local government web resources and services.